9L2

Edwards Af Aux North Base Airport

Edwards, California, USA
METAR K9L2 201358Z AUTO 18003KT 9SM CLR 23/14 A2997 RMK AO2 SLP121 T02330141
Observed Flight Rules
Jul-20 @ 13:58 UTC (50 minutes ago) Visual Flight Rules
Wind Visibility Clouds
180° at 3 knots 9 miles
  • Clear skies
Temperatures Readings
Current 23°C / 73°F
Dewpoint 14°C / 57°F
Humidity 57%
Altimeter 29.97" Hg
Pressure 1012.1 hPa
Elevation 701
METAR K9L2 201358Z AUTO 18003KT 9SM CLR 23/14 A2997 RMK AO2 SLP121 T02330141
Observed Flight Rules
Jul-20 @ 13:58 UTC
(50 minutes ago)
VFR
Wind Visibility
180° at 3 knots 9 miles
Clouds
  • Clear skies
Temperature Dewpoint
23°C / 73°F 14°C / 57°F
Humidity Altimeter Pressure
57% 29.97" Hg 1012.1 hPa